Time;durP1;ratioP1;P1;durP2;ratioP2;P2;SDS_P1;SDS_P2;PMS_P1;PMS_P2;Temp;Humidity;BMP_temperature;BMP_pressure;BME280_temperature;BME280_humidity;BME280_pressure;Samples;Min_cycle;Max_cycle;Signal;HPM_P1;HPM_P2
2023/01/15 00:02:30;;;;;;;0.97;0.63;;;;;;;4.92;100.00;99760.88;10381498;28;20037;-76
2023/01/15 00:07:30;;;;;;;2.92;0.85;;;;;;;4.90;100.00;99772.88;10398662;28;20406;-77
2023/01/15 00:12:31;;;;;;;2.95;1.15;;;;;;;4.84;100.00;99771.75;10375582;28;20100;-77
2023/01/15 00:17:31;;;;;;;1.83;0.38;;;;;;;4.82;100.00;99757.81;10371138;28;20095;-77
2023/01/15 00:22:32;;;;;;;2.38;0.77;;;;;;;4.88;100.00;99751.16;10401072;28;20166;-77
2023/01/15 00:27:38;;;;;;;2.75;0.90;;;;;;;4.94;100.00;99731.63;10427349;28;20041;-77
2023/01/15 00:32:42;;;;;;;1.23;0.52;;;;;;;4.80;100.00;99750.75;10399783;28;20041;-77
2023/01/15 00:37:43;;;;;;;2.28;0.88;;;;;;;4.78;100.00;99742.91;10415030;28;20037;-76
2023/01/15 00:42:43;;;;;;;5.38;1.15;;;;;;;4.70;100.00;99736.41;10431087;28;20038;-79
2023/01/15 00:47:44;;;;;;;6.60;1.00;;;;;;;4.70;100.00;99742.47;10391780;28;20124;-79
2023/01/15 00:52:44;;;;;;;4.03;2.05;;;;;;;4.74;100.00;99740.97;10356329;28;20045;-77
2023/01/15 00:57:46;;;;;;;0.93;0.38;;;;;;;4.76;100.00;99744.53;10370169;28;20041;-78
2023/01/15 01:02:47;;;;;;;3.25;0.77;;;;;;;4.78;100.00;99762.72;10396012;28;20072;-77
2023/01/15 01:07:47;;;;;;;3.65;1.15;;;;;;;4.76;100.00;99753.97;10396822;28;20133;-77
2023/01/15 01:12:50;;;;;;;5.28;0.95;;;;;;;4.81;100.00;99755.13;10398751;28;20041;-77
2023/01/15 01:17:51;;;;;;;2.63;1.27;;;;;;;4.82;100.00;99773.38;10409109;28;20562;-78
2023/01/15 01:22:52;;;;;;;2.83;0.95;;;;;;;4.81;100.00;99776.78;10436010;28;20048;-78
2023/01/15 01:27:52;;;;;;;1.52;0.77;;;;;;;4.78;100.00;99784.38;10389464;28;20210;-78
2023/01/15 01:32:52;;;;;;;6.18;2.55;;;;;;;4.80;100.00;99753.34;10404681;28;20038;-78
2023/01/15 01:37:53;;;;;;;2.80;0.80;;;;;;;4.78;100.00;99773.09;10419966;28;20045;-78
2023/01/15 01:42:54;;;;;;;10.95;2.35;;;;;;;4.76;100.00;99766.94;10419476;28;20461;-78
2023/01/15 01:47:57;;;;;;;2.10;1.00;;;;;;;4.77;100.00;99780.00;10424670;28;20552;-78
2023/01/15 01:52:59;;;;;;;1.65;0.70;;;;;;;4.81;100.00;99783.63;10404509;28;20398;-78
2023/01/15 01:58:00;;;;;;;4.47;0.90;;;;;;;4.81;100.00;99779.34;10399987;28;20539;-78
2023/01/15 02:03:01;;;;;;;1.70;0.82;;;;;;;4.77;100.00;99769.63;10364739;28;20128;-78
2023/01/15 02:08:02;;;;;;;3.88;1.27;;;;;;;4.75;100.00;99771.25;10403521;28;20038;-78
2023/01/15 02:13:08;;;;;;;6.05;1.65;;;;;;;4.83;100.00;99776.84;10402754;28;20067;-78
2023/01/15 02:18:15;;;;;;;4.80;1.00;;;;;;;4.80;100.00;99761.13;10438867;28;20086;-78
2023/01/15 02:23:59;;;;;;;10.25;2.90;;;;;;;4.88;100.00;99751.16;10386766;28;20120;-78
2023/01/15 02:28:59;;;;;;;5.63;1.92;;;;;;;4.89;100.00;99765.91;10415364;28;20052;-78
2023/01/15 02:34:02;;;;;;;5.13;1.17;;;;;;;4.89;100.00;99769.38;10452721;28;20043;-78
2023/01/15 02:39:06;;;;;;;8.88;2.42;;;;;;;4.92;100.00;99763.47;10443391;28;20508;-78
2023/01/15 02:44:06;;;;;;;5.70;1.45;;;;;;;4.89;100.00;99771.97;10415445;28;20056;-79
2023/01/15 02:49:07;;;;;;;8.88;1.85;;;;;;;4.90;100.00;99776.34;10394620;28;20037;-78
2023/01/15 02:54:10;;;;;;;3.28;1.27;;;;;;;4.93;100.00;99749.69;10378389;28;20135;-78
2023/01/15 02:59:13;;;;;;;7.68;1.65;;;;;;;4.89;100.00;99738.25;10423563;28;20061;-78
2023/01/15 03:04:43;;;;;;;14.98;1.88;;;;;;;4.87;100.00;99739.88;10481156;28;20032;-78
2023/01/15 03:09:43;;;;;;;8.23;1.60;;;;;;;4.89;100.00;99734.78;10463548;28;20179;-78
2023/01/15 03:16:33;;;;;;;7.20;2.47;;;;;;;4.87;100.00;99745.06;10475049;28;20082;-78
2023/01/15 03:20:34;;;;;;;9.05;1.90;;;;;;;4.86;100.00;99745.88;10470244;28;20055;-78
2023/01/15 03:25:38;;;;;;;10.40;2.70;;;;;;;4.85;100.00;99745.00;10441303;28;20052;-78
2023/01/15 03:30:39;;;;;;;7.13;2.30;;;;;;;4.84;100.00;99747.50;10425137;28;20064;-78
2023/01/15 03:35:51;;;;;;;9.65;2.47;;;;;;;4.90;100.00;99741.75;10449823;28;20433;-78
2023/01/15 03:41:10;;;;;;;;;;;;;;;4.85;100.00;99741.50;10447496;28;20349;-78
2023/01/15 03:46:26;;;;;;;7.28;2.00;;;;;;;4.92;100.00;99740.13;10443367;28;20011;-78
2023/01/15 03:51:55;;;;;;;6.57;2.05;;;;;;;4.82;100.00;99744.84;10426940;28;20046;-78
2023/01/15 03:57:04;;;;;;;7.32;1.80;;;;;;;4.82;100.00;99744.84;10413939;28;20038;-78
2023/01/15 04:02:06;;;;;;;5.75;2.20;;;;;;;4.83;100.00;99733.66;10439116;28;20056;-80
2023/01/15 04:07:07;;;;;;;5.32;1.65;;;;;;;4.84;100.00;99740.63;10469855;28;20033;-78
2023/01/15 04:12:09;;;;;;;5.57;1.70;;;;;;;4.86;100.00;99740.69;10407348;28;20111;-78
2023/01/15 04:17:09;;;;;;;10.70;2.50;;;;;;;4.86;100.00;99743.28;10455665;28;20045;-78
2023/01/15 04:22:10;;;;;;;14.43;2.90;;;;;;;4.95;100.00;99737.72;10441505;28;20045;-78
2023/01/15 04:27:10;;;;;;;5.95;3.03;;;;;;;4.94;100.00;99738.53;10437816;28;20041;-78
2023/01/15 04:32:11;;;;;;;10.73;1.95;;;;;;;4.96;100.00;99727.41;10427714;28;20060;-78
2023/01/15 04:37:11;;;;;;;8.70;2.13;;;;;;;4.94;100.00;99739.41;10474153;28;20537;-78
2023/01/15 04:47:34;;;;;;;7.32;1.48;;;;;;;4.90;100.00;99736.56;10450878;28;20500;-78
2023/01/15 04:52:35;;;;;;;10.70;2.65;;;;;;;4.91;100.00;99739.22;10436839;28;20041;-78
2023/01/15 04:57:37;;;;;;;7.55;2.13;;;;;;;4.96;100.00;99744.69;10447255;28;20033;-78
2023/01/15 05:02:38;;;;;;;10.77;3.35;;;;;;;4.97;100.00;99754.25;10439069;28;20037;-78
2023/01/15 05:07:38;;;;;;;11.15;2.25;;;;;;;4.96;100.00;99757.63;10440649;28;20477;-78
2023/01/15 05:12:39;;;;;;;9.32;3.65;;;;;;;5.01;100.00;99745.81;10442504;28;20037;-78
2023/01/15 05:17:39;;;;;;;12.13;3.47;;;;;;;5.09;100.00;99748.78;10454010;28;20412;-78
2023/01/15 05:22:40;;;;;;;7.07;3.75;;;;;;;4.91;100.00;99749.59;10455194;28;20047;-78
2023/01/15 05:27:41;;;;;;;8.50;2.35;;;;;;;4.89;100.00;99751.22;10446492;28;20036;-78
2023/01/15 05:32:41;;;;;;;11.90;4.60;;;;;;;4.99;100.00;99731.88;10444864;28;20592;-78
2023/01/15 05:37:42;;;;;;;7.82;2.45;;;;;;;4.99;100.00;99743.13;10434431;28;20071;-78
2023/01/15 05:42:42;;;;;;;10.18;2.38;;;;;;;4.99;100.00;99737.06;10432956;28;20075;-78
2023/01/15 05:47:43;;;;;;;6.40;1.48;;;;;;;5.02;100.00;99737.22;10442087;28;20037;-78
2023/01/15 05:52:43;;;;;;;6.57;1.75;;;;;;;5.06;100.00;99759.00;10441552;28;20052;-78
2023/01/15 05:57:44;;;;;;;11.02;2.50;;;;;;;5.00;100.00;99752.69;10434741;28;20048;-79
2023/01/15 06:02:48;;;;;;;11.15;2.67;;;;;;;4.95;100.00;99756.72;10440201;28;20477;-78
2023/01/15 06:07:49;;;;;;;10.85;5.05;;;;;;;4.87;100.00;99763.22;10456431;28;20433;-78
2023/01/15 06:12:49;;;;;;;11.93;2.13;;;;;;;4.80;100.00;99751.66;10434107;28;20041;-78
2023/01/15 06:17:50;;;;;;;12.25;2.30;;;;;;;4.72;100.00;99771.09;10456983;28;20053;-77
2023/01/15 06:22:50;;;;;;;6.82;1.90;;;;;;;4.81;100.00;99765.50;10456504;28;20060;-78
2023/01/15 06:27:51;;;;;;;6.22;1.58;;;;;;;4.79;100.00;99774.88;10463459;28;20497;-77
2023/01/15 06:32:54;;;;;;;7.05;1.73;;;;;;;4.72;100.00;99778.88;10425833;28;20119;-78
2023/01/15 06:37:54;;;;;;;8.02;2.72;;;;;;;4.70;100.00;99780.47;10449372;28;20388;-78
2023/01/15 06:48:18;;;;;;;7.40;2.97;;;;;;;4.63;100.00;99774.06;10468120;28;20527;-79
2023/01/15 06:53:21;;;;;;;6.55;2.17;;;;;;;4.65;100.00;99768.97;10447955;28;20041;-78
2023/01/15 06:58:22;;;;;;;5.47;1.70;;;;;;;4.58;100.00;99772.06;10450915;28;20040;-79
2023/01/15 07:03:26;;;;;;;12.38;3.60;;;;;;;4.53;100.00;99796.00;10445208;28;20147;-78
2023/01/15 07:08:26;;;;;;;6.50;2.42;;;;;;;4.51;100.00;99791.53;10440828;28;20072;-79
2023/01/15 07:13:27;;;;;;;7.07;2.13;;;;;;;4.50;100.00;99801.03;10444530;28;20120;-80
2023/01/15 07:18:28;;;;;;;4.57;1.63;;;;;;;4.61;100.00;99804.19;10429428;28;20041;-79
2023/01/15 07:23:29;;;;;;;5.43;1.97;;;;;;;4.51;100.00;99815.78;10459867;28;20488;-77
2023/01/15 07:28:30;;;;;;;7.90;3.72;;;;;;;4.48;100.00;99784.50;10417977;28;20067;-76
2023/01/15 07:33:30;;;;;;;5.80;1.75;;;;;;;4.48;100.00;99802.66;10419793;28;20125;-77
2023/01/15 07:38:31;;;;;;;12.85;3.03;;;;;;;4.45;100.00;99823.19;10460218;28;20132;-76
2023/01/15 07:54:10;;;;;;;4.85;1.30;;;;;;;4.19;100.00;99835.59;10432247;28;20041;-78
2023/01/15 07:59:11;;;;;;;5.90;1.57;;;;;;;4.27;100.00;99841.19;10438286;28;20037;-78
2023/01/15 08:04:12;;;;;;;7.65;1.20;;;;;;;4.32;100.00;99834.56;10428078;28;20065;-79
2023/01/15 08:09:12;;;;;;;5.97;1.40;;;;;;;4.20;100.00;99855.50;10446255;28;20039;-78
2023/01/15 08:19:32;;;;;;;5.95;1.20;;;;;;;3.81;100.00;99867.94;10433032;28;20040;-78
2023/01/15 08:24:32;;;;;;;2.80;0.80;;;;;;;3.70;100.00;99882.81;10421883;28;20120;-79
2023/01/15 08:29:33;;;;;;;5.80;1.65;;;;;;;3.58;100.00;99895.94;10432347;28;20077;-78
2023/01/15 08:34:34;;;;;;;8.07;2.45;;;;;;;3.45;100.00;99889.09;10379279;28;20048;-78
2023/01/15 08:39:34;;;;;;;5.38;1.52;;;;;;;3.37;100.00;99887.75;10367140;28;20571;-78
2023/01/15 08:44:40;;;;;;;10.45;1.33;;;;;;;3.35;100.00;99877.31;10359446;28;20562;-78
2023/01/15 08:49:45;;;;;;;2.53;1.05;;;;;;;3.26;100.00;99884.53;10422363;28;20051;-80
2023/01/15 08:54:46;;;;;;;9.35;3.00;;;;;;;3.36;100.00;99883.38;10414156;28;20045;-77
2023/01/15 08:59:47;;;;;;;9.25;1.95;;;;;;;3.43;100.00;99877.78;10403206;28;20198;-78
2023/01/15 09:04:47;;;;;;;9.38;2.58;;;;;;;3.59;100.00;99858.91;10406958;28;20072;-76
2023/01/15 09:09:48;;;;;;;4.15;1.52;;;;;;;3.68;100.00;99853.38;10405085;28;20061;-79
2023/01/15 09:14:48;;;;;;;8.18;1.92;;;;;;;3.78;100.00;99849.63;10392832;28;20129;-81
2023/01/15 09:19:51;;;;;;;24.73;3.13;;;;;;;4.01;100.00;99847.50;10397787;28;20500;-77
2023/01/15 09:24:52;;;;;;;9.23;2.85;;;;;;;4.21;100.00;99841.75;10404567;28;20121;-77
2023/01/15 09:29:52;;;;;;;4.60;1.52;;;;;;;4.45;100.00;99843.94;10402350;28;20052;-78
2023/01/15 09:34:53;;;;;;;11.50;2.83;;;;;;;4.79;100.00;99845.78;10400691;28;20770;-79
2023/01/15 09:39:53;;;;;;;6.75;1.88;;;;;;;4.92;100.00;99841.28;10383298;28;20128;-77
2023/01/15 09:45:30;;;;;;;6.38;2.05;;;;;;;4.89;100.00;99849.75;10425992;28;20049;-78
2023/01/15 09:50:43;;;;;;;8.23;1.65;;;;;;;5.04;100.00;99846.19;10411296;28;20037;-79
2023/01/15 09:55:48;;;;;;;6.80;2.17;;;;;;;5.03;100.00;99853.09;10407600;28;20037;-78
2023/01/15 10:00:49;;;;;;;10.02;2.45;;;;;;;5.29;100.00;99838.03;10416643;28;20048;-78
2023/01/15 10:05:55;;;;;;;9.03;2.93;;;;;;;5.54;100.00;99860.94;10426524;28;20052;-78
2023/01/15 10:11:03;;;;;;;9.82;2.28;;;;;;;6.94;100.00;99859.06;10430878;28;20047;-78
2023/01/15 10:16:05;;;;;;;6.93;1.50;;;;;;;5.78;100.00;99855.22;10371338;28;20519;-74
2023/01/15 10:21:20;;;;;;;14.13;5.60;;;;;;;6.68;100.00;99874.34;10359800;28;20041;-74
2023/01/15 10:26:24;;;;;;;6.32;3.28;;;;;;;6.78;100.00;99873.94;10440718;28;20689;-76
2023/01/15 10:31:40;;;;;;;5.85;1.92;;;;;;;7.28;100.00;99881.41;10442045;28;20105;-74
2023/01/15 10:36:43;;;;;;;6.07;1.73;;;;;;;7.59;100.00;99885.38;10421942;28;20095;-76
2023/01/15 10:41:43;;;;;;;9.20;3.33;;;;;;;7.42;100.00;99879.41;10423568;28;20037;-77
2023/01/15 10:46:49;;;;;;;6.20;1.65;;;;;;;7.11;100.00;99872.81;10482048;28;20385;-80
2023/01/15 10:51:52;;;;;;;6.28;2.05;;;;;;;8.98;100.00;99887.56;10454310;28;20056;-78
2023/01/15 10:57:10;;;;;;;11.50;2.72;;;;;;;7.20;100.00;99858.53;10441555;28;20041;-78
2023/01/15 11:02:48;;;;;;;8.32;3.55;;;;;;;6.87;100.00;99873.47;10408007;28;20056;-77
2023/01/15 11:07:50;;;;;;;6.00;2.25;;;;;;;7.69;100.00;99877.13;10442280;28;20044;-80
2023/01/15 11:23:59;;;;;;;4.82;1.40;;;;;;;6.29;100.00;99854.28;10481043;28;20041;-79
2023/01/15 11:29:00;;;;;;;2.35;1.00;;;;;;;6.05;100.00;99856.59;10488644;28;20040;-80
2023/01/15 11:34:03;;;;;;;3.08;1.60;;;;;;;6.36;100.00;99866.75;10457361;28;20090;-80
2023/01/15 11:39:04;;;;;;;4.75;1.33;;;;;;;7.25;100.00;99861.31;10458302;28;20037;-80
2023/01/15 11:54:48;;;;;;;9.93;3.20;;;;;;;6.71;100.00;99877.94;10508474;28;19923;-79
2023/01/15 11:59:49;;;;;;;8.43;2.38;;;;;;;7.11;100.00;99857.22;10471090;28;20033;-78
2023/01/15 12:04:57;;;;;;;3.45;1.10;;;;;;;7.90;100.00;99858.91;10471684;28;20124;-78
2023/01/15 12:15:55;;;;;;;8.20;1.58;;;;;;;7.39;100.00;99854.13;10460705;28;20041;-81
2023/01/15 12:21:09;;;;;;;18.35;4.05;;;;;;;6.86;100.00;99864.78;10461443;28;20055;-78
2023/01/15 12:26:26;;;;;;;4.82;1.70;;;;;;;7.13;100.00;99860.75;10445050;28;20128;-77
2023/01/15 12:31:38;;;;;;;3.53;1.20;;;;;;;6.78;100.00;99860.03;10432746;28;20520;-77
2023/01/15 12:37:14;;;;;;;7.80;1.53;;;;;;;6.24;100.00;99845.38;10456809;28;20044;-77
2023/01/15 12:48:09;;;;;;;4.87;1.20;;;;;;;5.86;100.00;99876.41;10445851;28;20037;-77
2023/01/15 12:53:20;;;;;;;5.10;2.00;;;;;;;5.86;100.00;99876.41;10427816;28;20041;-78
2023/01/15 12:58:41;;;;;;;3.90;0.93;;;;;;;5.96;100.00;99862.16;10435630;28;20079;-77
2023/01/15 13:04:13;;;;;;;2.70;1.52;;;;;;;6.17;100.00;99868.44;10471369;28;20041;-77
2023/01/15 13:09:40;;;;;;;;;;;;;;;6.18;100.00;99869.34;10378098;28;20052;-77
2023/01/15 13:14:41;;;;;;;6.15;1.25;;;;;;;6.02;100.00;99884.19;10463210;28;19920;-77
2023/01/15 13:20:03;;;;;;;11.60;3.60;;;;;;;5.88;100.00;99874.78;10466825;28;20033;-77
2023/01/15 13:25:28;;;;;;;5.90;2.03;;;;;;;5.86;100.00;99869.47;10481237;28;20440;-79
2023/01/15 13:30:51;;;;;;;5.07;1.77;;;;;;;6.10;100.00;99868.97;10442429;28;20040;-77
2023/01/15 13:35:55;;;;;;;5.05;1.80;;;;;;;6.35;100.00;99877.09;10468703;28;20052;-78
2023/01/15 13:41:02;;;;;;;5.15;1.65;;;;;;;6.01;100.00;99891.88;10481590;28;20036;-78
2023/01/15 13:46:04;;;;;;;3.30;1.45;;;;;;;5.97;100.00;99883.03;10501871;28;20032;-77
2023/01/15 13:51:05;;;;;;;4.40;2.13;;;;;;;5.86;100.00;99886.78;10469953;28;20036;-78
2023/01/15 13:56:08;;;;;;;6.40;1.48;;;;;;;5.76;100.00;99877.63;10465720;28;20036;-79
2023/01/15 14:01:20;;;;;;;5.68;1.52;;;;;;;5.99;100.00;99880.50;10490798;28;20032;-78
2023/01/15 14:06:21;;;;;;;;;;;;;;;6.73;100.00;99896.25;10526042;28;20040;-78
2023/01/15 14:11:40;;;;;;;6.63;2.17;;;;;;;6.17;100.00;99893.56;10482757;28;19921;-78
2023/01/15 14:16:45;;;;;;;5.63;1.88;;;;;;;5.87;100.00;99860.88;10462825;28;20040;-78
2023/01/15 14:22:00;;;;;;;7.43;2.22;;;;;;;5.72;100.00;99899.06;10482001;28;20032;-78
2023/01/15 14:27:20;;;;;;;8.15;3.08;;;;;;;5.65;100.00;99902.13;10483147;28;20051;-78
2023/01/15 14:33:17;;;;;;;3.00;1.45;;;;;;;5.57;100.00;99902.63;10459030;28;20043;-77
2023/01/15 14:38:21;;;;;;;4.15;1.25;;;;;;;5.67;100.00;99874.56;10314360;28;20034;-77
2023/01/15 14:43:24;;;;;;;5.47;2.13;;;;;;;5.70;100.00;99898.09;10426117;28;20056;-77
2023/01/15 14:48:28;;;;;;;4.38;1.10;;;;;;;5.78;100.00;99893.28;10449646;28;20090;-77
2023/01/15 14:53:35;;;;;;;7.18;0.98;;;;;;;5.68;100.00;99898.00;10460753;28;20086;-78
2023/01/15 14:58:49;;;;;;;3.20;1.33;;;;;;;5.65;100.00;99902.13;10423315;28;20574;-78
2023/01/15 15:04:00;;;;;;;6.05;1.30;;;;;;;5.45;100.00;99904.59;10444824;28;20041;-77
2023/01/15 15:09:03;;;;;;;3.00;0.70;;;;;;;5.52;100.00;99895.44;10459884;28;20040;-78
2023/01/15 15:14:04;;;;;;;1.55;0.70;;;;;;;5.41;100.00;99900.97;10464096;28;20048;-78
2023/01/15 15:19:29;;;;;;;4.63;0.90;;;;;;;5.01;100.00;99880.66;10487941;28;20127;-79
2023/01/15 15:24:35;;;;;;;3.88;0.82;;;;;;;4.71;100.00;99930.03;10488361;28;20030;-77
2023/01/15 15:29:35;;;;;;;8.25;0.77;;;;;;;4.57;100.00;99931.81;10505702;28;20043;-78
2023/01/15 15:34:39;;;;;;;2.28;0.82;;;;;;;4.49;100.00;99921.03;10523668;28;20059;-78
2023/01/15 15:39:58;;;;;;;10.23;1.20;;;;;;;4.37;100.00;99934.16;10468317;28;20536;-79
2023/01/15 15:50:22;;;;;;;8.75;0.88;;;;;;;4.46;100.00;99922.53;10472459;28;20055;-78
2023/01/15 15:55:25;;;;;;;4.35;1.50;;;;;;;4.49;100.00;99923.63;10501173;28;20097;-76
2023/01/15 16:00:40;;;;;;;2.05;0.88;;;;;;;4.46;100.00;99931.22;10480862;28;20040;-77
2023/01/15 16:05:42;;;;;;;3.80;0.88;;;;;;;4.46;100.00;99938.09;10509157;28;20032;-78
2023/01/15 16:10:43;;;;;;;6.25;1.55;;;;;;;4.56;100.00;99930.03;10475662;28;20036;-76
2023/01/15 16:15:47;;;;;;;7.75;1.85;;;;;;;4.44;100.00;99927.66;10453488;28;20377;-78
2023/01/15 16:20:47;;;;;;;5.05;1.73;;;;;;;4.41;100.00;99914.53;10489133;28;20133;-78
2023/01/15 16:25:55;;;;;;;9.55;2.72;;;;;;;4.28;100.00;99931.03;10484483;28;20119;-78
2023/01/15 16:30:56;;;;;;;1.85;0.90;;;;;;;4.30;100.00;99925.97;10450925;28;20108;-78
2023/01/15 16:35:58;;;;;;;3.70;1.10;;;;;;;4.59;100.00;99932.81;10457780;28;20032;-79
2023/01/15 16:41:00;;;;;;;9.67;1.23;;;;;;;4.75;100.00;99924.19;10474672;28;20036;-78
2023/01/15 16:46:01;;;;;;;5.88;1.90;;;;;;;4.90;100.00;99924.16;10473551;28;20040;-79
2023/01/15 16:51:30;;;;;;;8.10;1.10;;;;;;;4.96;100.00;99937.44;10510986;28;20036;-78
2023/01/15 16:56:34;;;;;;;2.50;0.93;;;;;;;4.97;100.00;99943.53;10505510;28;20434;-78
2023/01/15 17:01:44;;;;;;;14.57;1.63;;;;;;;4.88;100.00;99927.47;10527904;28;20042;-77
2023/01/15 17:06:59;;;;;;;22.63;10.02;;;;;;;4.89;100.00;99931.84;10509837;28;20480;-76
2023/01/15 17:12:07;;;;;;;12.65;7.70;;;;;;;4.82;100.00;99934.09;10492608;28;20450;-76
2023/01/15 17:17:21;;;;;;;7.82;4.43;;;;;;;4.89;100.00;99942.22;10458671;28;20051;-77
2023/01/15 17:22:28;;;;;;;8.38;3.28;;;;;;;4.87;100.00;99936.94;10484846;28;20041;-77
2023/01/15 17:27:29;;;;;;;2.75;1.45;;;;;;;4.82;100.00;99928.91;10463723;28;20042;-77
2023/01/15 17:32:38;;;;;;;3.92;1.58;;;;;;;4.86;100.00;99922.19;10507509;28;20032;-78
2023/01/15 17:37:39;;;;;;;13.30;3.03;;;;;;;4.85;100.00;99933.38;10505814;28;20119;-79
2023/01/15 17:42:39;;;;;;;4.43;1.75;;;;;;;4.83;100.00;99941.06;10508692;28;20046;-78
2023/01/15 17:47:40;;;;;;;5.45;1.55;;;;;;;4.82;100.00;99941.88;10523811;28;20051;-78
2023/01/15 17:52:41;;;;;;;5.25;1.33;;;;;;;4.83;100.00;99945.34;10525788;28;20032;-79
2023/01/15 18:08:20;;;;;;;4.53;1.42;;;;;;;4.47;100.00;99938.19;10466447;28;20072;-78
2023/01/15 18:13:20;;;;;;;2.50;1.13;;;;;;;4.39;100.00;99945.50;10465346;28;20063;-78
2023/01/15 18:18:21;;;;;;;5.90;1.13;;;;;;;4.20;100.00;99938.38;10509952;28;20503;-77
2023/01/15 18:23:21;;;;;;;6.93;2.33;;;;;;;4.05;100.00;99937.50;10507151;28;20039;-77
2023/01/15 18:28:22;;;;;;;5.00;1.55;;;;;;;3.82;100.00;99921.50;10487143;28;20089;-77
2023/01/15 18:33:22;;;;;;;5.47;1.60;;;;;;;3.75;100.00;99919.34;10493987;28;20040;-77
2023/01/15 18:38:23;;;;;;;4.32;1.38;;;;;;;3.69;100.00;99922.44;10500043;28;20089;-78
2023/01/15 18:48:42;;;;;;;12.38;3.92;;;;;;;3.59;100.00;99905.47;10492563;28;20075;-77
2023/01/15 18:53:43;;;;;;;9.20;2.88;;;;;;;3.49;100.00;99905.72;10478326;28;20522;-78
2023/01/15 18:58:44;;;;;;;7.72;1.60;;;;;;;3.54;100.00;99901.72;10469502;28;20037;-78
2023/01/15 19:03:44;;;;;;;5.13;1.65;;;;;;;3.71;100.00;99899.25;10463354;28;20552;-78
2023/01/15 19:08:45;;;;;;;6.30;2.70;;;;;;;3.92;100.00;99904.78;10480030;28;20116;-77
2023/01/15 19:18:40;;;;;;;5.55;1.70;;;;;;;3.90;100.00;99899.53;10483011;28;20054;-78
2023/01/15 19:19:06;;;;;;;5.20;2.28;;;;;;;3.90;100.00;99877.91;10476728;28;20040;-77
2023/01/15 19:24:06;;;;;;;4.45;1.88;;;;;;;3.43;100.00;99882.06;10495938;28;20114;-77
2023/01/15 19:29:07;;;;;;;2.92;1.58;;;;;;;3.14;100.00;99882.06;10483161;28;20044;-77
2023/01/15 19:34:10;;;;;;;7.60;2.05;;;;;;;2.85;100.00;99875.09;10508453;28;20127;-77
2023/01/15 19:39:10;;;;;;;5.68;2.17;;;;;;;2.72;100.00;99873.44;10507367;28;20112;-78
2023/01/15 19:54:56;;;;;;;6.25;2.88;;;;;;;2.72;100.00;99866.59;10476278;28;20068;-77
2023/01/15 19:59:56;;;;;;;9.57;2.83;;;;;;;3.11;100.00;99845.69;10503363;28;20044;-78
2023/01/15 20:04:57;;;;;;;5.50;2.28;;;;;;;3.42;100.00;99833.72;10502641;28;21687;-77
2023/01/15 20:09:58;;;;;;;6.68;2.85;;;;;;;3.85;100.00;99825.91;10503906;28;20384;-77
2023/01/15 20:14:58;;;;;;;12.35;3.03;;;;;;;4.09;100.00;99817.75;10493215;28;20538;-77
2023/01/15 20:19:59;;;;;;;5.13;1.73;;;;;;;4.25;100.00;99801.34;10469886;28;20035;-77
2023/01/15 20:25:00;;;;;;;11.25;2.63;;;;;;;4.64;100.00;99785.34;10488788;28;20599;-76
2023/01/15 20:30:10;;;;;;;8.13;1.58;;;;;;;4.77;100.00;99780.00;10487381;28;20472;-77
2023/01/15 20:35:13;;;;;;;6.18;2.60;;;;;;;4.70;100.00;99759.75;10476101;28;20028;-77
2023/01/15 20:40:14;;;;;;;6.95;2.58;;;;;;;4.73;100.00;99759.91;10487790;28;20044;-77
2023/01/15 20:45:15;;;;;;;9.67;2.43;;;;;;;4.75;100.00;99753.09;10491177;28;20038;-77
2023/01/15 20:50:16;;;;;;;4.47;1.80;;;;;;;4.89;100.00;99751.22;10502236;28;20032;-77
2023/01/15 20:55:17;;;;;;;5.70;1.45;;;;;;;4.91;100.00;99730.59;10500237;28;20170;-77
2023/01/15 21:00:19;;;;;;;5.68;1.50;;;;;;;4.90;100.00;99723.63;10486980;28;20043;-77
2023/01/15 21:05:19;;;;;;;5.72;2.67;;;;;;;4.70;100.00;99703.59;10459101;28;20055;-77
2023/01/15 21:10:21;;;;;;;6.90;2.50;;;;;;;4.48;100.00;99711.03;10470734;28;22293;-78
2023/01/15 21:15:22;;;;;;;5.22;1.83;;;;;;;4.48;100.00;99700.69;10509312;28;20039;-77
2023/01/15 21:20:23;;;;;;;6.90;2.93;;;;;;;4.46;100.00;99689.34;10500796;28;20070;-76
2023/01/15 21:25:24;;;;;;;7.40;2.33;;;;;;;4.43;100.00;99682.31;10509663;28;20123;-77
2023/01/15 21:30:25;;;;;;;5.85;2.30;;;;;;;4.41;100.00;99671.84;10488632;28;20040;-77
2023/01/15 21:35:25;;;;;;;4.75;2.25;;;;;;;4.33;100.00;99665.38;10508379;28;20064;-77
2023/01/15 21:40:26;;;;;;;6.38;2.30;;;;;;;4.17;100.00;99657.59;10477295;28;20062;-76
2023/01/15 21:45:29;;;;;;;6.03;1.67;;;;;;;4.02;100.00;99650.78;10487525;28;20040;-76
2023/01/15 21:50:30;;;;;;;7.18;2.70;;;;;;;3.95;100.00;99648.66;10485949;28;20484;-77
2023/01/15 21:55:30;;;;;;;4.82;2.22;;;;;;;3.82;100.00;99648.00;10468255;28;20051;-77
2023/01/15 22:00:31;;;;;;;6.25;1.77;;;;;;;3.83;100.00;99635.94;10462003;28;20126;-78
2023/01/15 22:05:32;;;;;;;10.88;2.60;;;;;;;4.04;100.00;99637.94;10478659;28;20127;-77
2023/01/15 22:10:33;;;;;;;4.72;1.90;;;;;;;4.18;100.00;99615.34;10514569;28;20036;-77
2023/01/15 22:15:33;;;;;;;18.80;2.97;;;;;;;4.24;100.00;99621.75;10459764;28;20442;-77
2023/01/15 22:20:34;;;;;;;7.13;1.98;;;;;;;4.14;100.00;99618.59;10476317;28;20059;-78
2023/01/15 22:25:34;;;;;;;4.30;1.30;;;;;;;4.01;100.00;99619.63;10505042;28;20126;-77
2023/01/15 22:30:37;;;;;;;6.18;1.67;;;;;;;3.93;100.00;99603.69;10464351;28;20040;-77
2023/01/15 22:35:37;;;;;;;5.25;2.05;;;;;;;4.00;100.00;99594.56;10475242;28;20089;-78
2023/01/15 22:40:38;;;;;;;4.20;1.17;;;;;;;3.95;100.00;99592.59;10489088;28;20115;-77
2023/01/15 22:45:38;;;;;;;5.70;2.80;;;;;;;3.74;100.00;99591.44;10463986;28;20479;-78
2023/01/15 22:50:39;;;;;;;7.15;1.98;;;;;;;3.57;100.00;99582.75;10492776;28;20101;-77
2023/01/15 22:55:39;;;;;;;7.53;1.63;;;;;;;3.42;100.00;99585.41;10480858;28;20484;-78
2023/01/15 23:00:40;;;;;;;9.40;3.15;;;;;;;3.30;100.00;99581.31;10447795;28;20043;-77
2023/01/15 23:05:40;;;;;;;6.88;1.92;;;;;;;3.24;100.00;99583.56;10502795;28;20531;-77
2023/01/15 23:10:44;;;;;;;12.98;5.13;;;;;;;3.22;100.00;99561.91;10469560;28;20037;-77
2023/01/15 23:15:45;;;;;;;7.78;2.03;;;;;;;3.19;100.00;99557.44;10505783;28;20100;-78
2023/01/15 23:20:45;;;;;;;9.48;2.25;;;;;;;3.36;100.00;99547.13;10503760;28;20028;-77
2023/01/15 23:25:46;;;;;;;8.75;2.33;;;;;;;3.41;100.00;99545.69;10501383;28;20051;-78
2023/01/15 23:30:46;;;;;;;6.22;2.05;;;;;;;3.46;100.00;99536.47;10487291;28;20025;-77
2023/01/15 23:35:47;;;;;;;4.13;2.05;;;;;;;3.57;100.00;99526.72;10500718;28;20366;-78
2023/01/15 23:40:47;;;;;;;4.55;1.65;;;;;;;3.55;100.00;99522.28;10465256;28;20456;-77
2023/01/15 23:51:07;;;;;;;8.80;3.88;;;;;;;3.64;100.00;99505.56;10519069;28;20489;-77
2023/01/15 23:56:07;;;;;;;6.43;2.08;;;;;;;3.76;100.00;99486.31;10463172;28;20028;-77
